Time;durP1;ratioP1;P1;durP2;ratioP2;P2;SDS_P1;SDS_P2;PMS_P1;PMS_P2;Temp;Humidity;BMP_temperature;BMP_pressure;BME280_temperature;BME280_humidity;BME280_pressure;Samples;Min_cycle;Max_cycle;Signal;HPM_P1;HPM_P2
2023/04/01 08:44:21;;;;;;;0.60;0.40;;;10.80;99.90;;;;;;1759152;23;20705;-76
2023/04/01 08:47:20;;;;;;;1.50;0.80;;;10.80;99.90;;;;;;4928278;29;20576;-76
2023/04/01 08:50:16;;;;;;;1.53;0.40;;;10.70;99.90;;;;;;4932750;29;20207;-77
2023/04/01 08:52:53;;;;;;;0.90;0.63;;;10.70;99.90;;;;;;4937376;29;20254;-77
2023/04/01 08:55:37;;;;;;;0.70;0.60;;;10.70;99.90;;;;;;4936889;29;20706;-78
2023/04/01 08:58:38;;;;;;;1.37;0.53;;;10.80;99.90;;;;;;4936873;29;20213;-77
2023/04/01 09:01:17;;;;;;;0.63;0.50;;;10.80;99.90;;;;;;4936997;29;20307;-77
2023/04/01 09:04:14;;;;;;;0.77;0.50;;;10.80;99.90;;;;;;4937107;29;20204;-80
2023/04/01 09:06:56;;;;;;;0.90;0.70;;;10.80;99.90;;;;;;4936822;29;20213;-78
2023/04/01 09:09:45;;;;;;;0.60;0.47;;;10.80;99.90;;;;;;4936862;29;20248;-80
2023/04/01 09:12:40;;;;;;;0.50;0.30;;;11.00;99.90;;;;;;4950482;28;20324;-80
2023/04/01 09:15:38;;;;;;;0.40;0.30;;;10.90;99.90;;;;;;4934444;29;20320;-78
2023/04/01 09:18:16;;;;;;;1.43;0.50;;;10.80;99.90;;;;;;4934400;29;20209;-79
2023/04/01 09:21:06;;;;;;;0.97;0.60;;;10.60;99.90;;;;;;4934275;29;20718;-78
2023/04/01 09:24:01;;;;;;;0.43;0.30;;;10.60;99.90;;;;;;4924702;29;20790;-79
2023/04/01 09:26:51;;;;;;;2.07;0.60;;;10.80;99.90;;;;;;4934271;29;20573;-78
2023/04/01 09:29:32;;;;;;;0.83;0.50;;;10.80;99.90;;;;;;4934288;29;20265;-78
2023/04/01 09:32:25;;;;;;;0.67;0.47;;;10.90;99.90;;;;;;4934241;29;20327;-77
2023/04/01 09:34:58;;;;;;;1.17;0.77;;;10.90;99.90;;;;;;4933968;29;20723;-75
2023/04/01 09:37:36;;;;;;;2.07;0.63;;;10.80;99.90;;;;;;4940248;29;20209;-74
2023/04/01 09:40:16;;;;;;;0.70;0.60;;;10.90;99.90;;;;;;4937644;29;20216;-75
2023/04/01 09:42:50;;;;;;;0.67;0.60;;;10.90;99.90;;;;;;4934619;29;20228;-76
2023/04/01 09:45:32;;;;;;;2.40;0.90;;;11.00;99.90;;;;;;4935009;29;20228;-75
2023/04/01 09:48:08;;;;;;;0.80;0.70;;;10.90;99.90;;;;;;4935870;29;20212;-76
2023/04/01 09:50:44;;;;;;;0.87;0.77;;;10.90;99.90;;;;;;4935875;29;20204;-76
2023/04/01 09:53:29;;;;;;;1.40;1.20;;;11.00;99.90;;;;;;4936288;29;20213;-75
2023/04/01 09:56:30;;;;;;;1.17;0.90;;;11.20;99.90;;;;;;4935909;29;20240;-75
2023/04/01 09:59:47;;;;;;;1.37;0.90;;;11.40;99.90;;;;;;4935804;29;20208;-75
2023/04/01 10:02:52;;;;;;;2.30;0.90;;;11.70;99.90;;;;;;4935394;29;20232;-74
2023/04/01 10:05:52;;;;;;;1.13;0.83;;;11.90;99.90;;;;;;4935548;29;20682;-74
2023/04/01 10:08:58;;;;;;;0.93;0.80;;;11.80;99.90;;;;;;4935774;29;20567;-75
2023/04/01 10:11:56;;;;;;;1.20;1.10;;;11.70;99.90;;;;;;4935070;29;20232;-75
2023/04/01 10:14:47;;;;;;;1.23;0.90;;;11.60;99.90;;;;;;4931787;29;20283;-75
2023/04/01 10:17:50;;;;;;;1.80;0.87;;;11.70;99.90;;;;;;4934143;29;20264;-76
2023/04/01 10:20:50;;;;;;;1.90;0.93;;;11.80;99.90;;;;;;4929892;29;20212;-77
2023/04/01 10:23:35;;;;;;;0.60;0.60;;;11.80;99.90;;;;;;4913147;29;20660;-77
2023/04/01 10:26:31;;;;;;;1.20;1.00;;;11.90;99.90;;;;;;4933929;29;20272;-77
2023/04/01 10:29:36;;;;;;;1.73;0.90;;;12.00;99.90;;;;;;4904692;29;20668;-77
2023/04/01 10:32:35;;;;;;;0.80;0.60;;;11.80;99.90;;;;;;4909246;29;20232;-76
2023/04/01 10:35:41;;;;;;;0.80;0.63;;;11.60;99.90;;;;;;4929576;29;20209;-76
2023/04/01 10:38:47;;;;;;;1.10;0.70;;;11.50;99.90;;;;;;4933811;28;20311;-76
2023/04/01 10:41:55;;;;;;;1.83;0.70;;;11.30;99.90;;;;;;4934491;29;20250;-76
2023/04/01 10:44:51;;;;;;;0.80;0.70;;;11.30;99.90;;;;;;4923506;29;20283;-75
2023/04/01 10:47:37;;;;;;;2.07;0.73;;;11.40;99.90;;;;;;4933584;29;20213;-75
2023/04/01 10:50:40;;;;;;;1.47;0.70;;;11.50;99.90;;;;;;4934227;29;20208;-74
2023/04/01 10:53:40;;;;;;;1.37;0.60;;;11.40;99.90;;;;;;4934003;29;20571;-75
2023/04/01 10:56:41;;;;;;;2.50;0.73;;;11.60;99.90;;;;;;4934937;29;20244;-75
2023/04/01 10:59:45;;;;;;;1.53;0.73;;;11.70;99.90;;;;;;4938335;29;20399;-76
2023/04/01 11:03:07;;;;;;;2.33;0.60;;;11.90;99.90;;;;;;4939557;29;20699;-76
2023/04/01 11:06:08;;;;;;;0.80;0.40;;;12.10;99.90;;;;;;4939508;29;20216;-77
2023/04/01 11:09:03;;;;;;;0.40;0.40;;;12.00;99.90;;;;;;4939389;29;20217;-77
2023/04/01 11:12:09;;;;;;;1.03;0.57;;;11.90;99.90;;;;;;4939247;29;20225;-77
2023/04/01 11:15:20;;;;;;;1.03;0.50;;;11.90;99.90;;;;;;4939639;29;20208;-77
2023/04/01 11:18:26;;;;;;;0.67;0.60;;;11.90;99.90;;;;;;4922931;29;20221;-76
2023/04/01 11:21:27;;;;;;;2.53;0.50;;;11.80;99.90;;;;;;4939545;29;20319;-76
2023/04/01 11:24:18;;;;;;;1.53;0.70;;;11.60;99.90;;;;;;4938947;29;20213;-76
2023/04/01 11:26:56;;;;;;;1.63;0.50;;;11.70;99.90;;;;;;4939690;29;20226;-76
2023/04/01 11:29:47;;;;;;;0.50;0.50;;;11.80;99.90;;;;;;4939173;29;20242;-76
2023/04/01 11:32:30;;;;;;;0.60;0.40;;;11.70;99.90;;;;;;4938762;29;20224;-76
2023/04/01 11:35:26;;;;;;;0.70;0.50;;;11.70;99.90;;;;;;4938889;29;20213;-77
2023/04/01 11:38:02;;;;;;;0.77;0.50;;;11.80;99.90;;;;;;4938792;29;20227;-77
2023/04/01 11:40:36;;;;;;;0.83;0.50;;;12.00;99.90;;;;;;4939479;29;20212;-76
2023/04/01 11:43:15;;;;;;;1.23;0.50;;;12.10;99.90;;;;;;4939031;29;20205;-76
2023/04/01 11:45:49;;;;;;;1.50;1.00;;;12.40;99.90;;;;;;4938560;29;20579;-77
2023/04/01 11:48:52;;;;;;;1.73;1.33;;;12.60;99.90;;;;;;4938499;29;20215;-76
2023/04/01 11:51:54;;;;;;;1.53;1.07;;;12.70;99.90;;;;;;4938424;29;20232;-76
2023/04/01 11:54:36;;;;;;;2.20;0.67;;;12.90;99.90;;;;;;4938579;29;20208;-77
2023/04/01 11:57:25;;;;;;;1.47;1.00;;;12.90;99.90;;;;;;4938469;29;20627;-77
2023/04/01 12:00:07;;;;;;;1.03;0.70;;;12.70;99.90;;;;;;4938520;29;20568;-76
2023/04/01 12:02:48;;;;;;;1.43;0.60;;;12.50;99.90;;;;;;4938546;29;20231;-77
2023/04/01 12:05:35;;;;;;;1.67;0.50;;;12.10;99.90;;;;;;4938931;29;20216;-76
2023/04/01 12:08:09;;;;;;;0.73;0.53;;;12.10;99.90;;;;;;4937506;29;20215;-76
2023/04/01 12:10:45;;;;;;;1.63;0.60;;;12.20;99.90;;;;;;4938070;29;20205;-76
2023/04/01 12:13:27;;;;;;;1.70;0.60;;;12.40;99.90;;;;;;4938229;29;20259;-76
2023/04/01 12:16:05;;;;;;;0.83;0.57;;;12.20;99.90;;;;;;4937807;29;20238;-76
2023/04/01 12:18:39;;;;;;;0.60;0.50;;;12.00;99.90;;;;;;4937961;29;20567;-76
2023/04/01 12:21:22;;;;;;;0.83;0.60;;;11.90;99.90;;;;;;4938003;29;20235;-77
2023/04/01 12:24:19;;;;;;;0.60;0.50;;;11.70;99.90;;;;;;4934830;29;20213;-75
2023/04/01 12:26:58;;;;;;;1.37;0.60;;;11.80;99.90;;;;;;4930182;29;20735;-75
2023/04/01 12:30:02;;;;;;;0.80;0.50;;;11.80;99.90;;;;;;4937501;29;20663;-76
2023/04/01 12:32:35;;;;;;;0.70;0.50;;;11.70;99.90;;;;;;4937580;29;20232;-76
2023/04/01 12:35:21;;;;;;;0.70;0.60;;;11.70;99.90;;;;;;4937268;29;20209;-77
2023/04/01 12:37:55;;;;;;;3.90;0.90;;;11.60;99.90;;;;;;4937605;29;20236;-76
2023/04/01 12:40:44;;;;;;;1.47;0.70;;;11.50;99.90;;;;;;4937695;29;20213;-78
2023/04/01 12:43:41;;;;;;;1.27;0.80;;;11.30;99.90;;;;;;4931461;29;20264;-77
2023/04/01 12:46:17;;;;;;;3.33;0.70;;;11.20;99.90;;;;;;4937529;29;20216;-76
2023/04/01 12:49:10;;;;;;;1.77;0.73;;;11.20;99.90;;;;;;4937278;29;20216;-75
2023/04/01 12:51:49;;;;;;;2.07;0.80;;;11.20;99.90;;;;;;4935249;29;20233;-74
2023/04/01 12:54:42;;;;;;;2.37;0.80;;;11.40;99.90;;;;;;4937144;29;20218;-77
2023/04/01 12:57:26;;;;;;;2.33;0.80;;;11.50;99.90;;;;;;4937226;29;20726;-76
2023/04/01 13:00:13;;;;;;;1.57;0.60;;;11.40;99.90;;;;;;4937232;29;20405;-76
2023/04/01 13:02:54;;;;;;;0.80;0.50;;;11.50;99.90;;;;;;4936986;29;20239;-76
2023/04/01 13:05:38;;;;;;;1.50;0.80;;;11.40;99.90;;;;;;4936828;29;20751;-76
2023/04/01 13:08:25;;;;;;;1.40;0.80;;;11.30;99.90;;;;;;4937056;29;20224;-76
2023/04/01 13:11:10;;;;;;;2.13;0.67;;;11.40;99.90;;;;;;4937592;29;20225;-77
2023/04/01 13:14:19;;;;;;;1.23;0.77;;;11.40;99.90;;;;;;4936979;29;20268;-75
2023/04/01 13:16:55;;;;;;;1.37;0.90;;;11.40;99.90;;;;;;4936705;29;20274;-75
2023/04/01 13:19:26;;;;;;;0.63;0.50;;;11.50;99.90;;;;;;4936895;29;20205;-75
2023/04/01 13:22:04;;;;;;;1.33;0.80;;;11.50;99.90;;;;;;4936681;29;20283;-76
2023/04/01 13:24:40;;;;;;;1.13;0.80;;;11.60;99.90;;;;;;4936349;29;20755;-76
2023/04/01 13:27:15;;;;;;;1.10;0.60;;;11.50;99.90;;;;;;4936827;29;20219;-74
2023/04/01 13:29:50;;;;;;;0.73;0.60;;;11.40;99.90;;;;;;4936580;29;20746;-75
2023/04/01 13:32:27;;;;;;;1.00;0.60;;;11.30;99.90;;;;;;4936485;29;20239;-76
2023/04/01 13:35:08;;;;;;;1.47;0.77;;;11.20;99.90;;;;;;4936286;29;20219;-75
2023/04/01 13:37:50;;;;;;;0.83;0.43;;;11.20;99.90;;;;;;4936321;29;20707;-75
2023/04/01 13:40:40;;;;;;;1.27;0.77;;;11.30;99.90;;;;;;4936741;29;20578;-76
2023/04/01 13:43:15;;;;;;;1.43;0.73;;;11.30;99.90;;;;;;4935954;29;20205;-75
2023/04/01 13:46:07;;;;;;;1.70;0.80;;;11.40;99.90;;;;;;4936357;29;20216;-76
2023/04/01 13:49:07;;;;;;;2.13;1.00;;;11.50;99.90;;;;;;4936253;29;20208;-75
2023/04/01 13:52:01;;;;;;;2.13;0.50;;;11.50;99.90;;;;;;4936095;29;20236;-77
2023/04/01 13:55:00;;;;;;;1.10;1.00;;;11.50;99.90;;;;;;4935791;29;20219;-75
2023/04/01 13:57:54;;;;;;;1.03;0.40;;;11.50;99.90;;;;;;4901481;29;20232;-74
2023/04/01 14:00:31;;;;;;;0.83;0.53;;;11.50;99.90;;;;;;4935745;29;20295;-74
2023/04/01 14:03:39;;;;;;;0.57;0.40;;;11.50;99.90;;;;;;4936079;29;20209;-74
2023/04/01 14:06:34;;;;;;;1.70;0.70;;;11.30;99.90;;;;;;4858643;29;20211;-74
2023/04/01 14:09:26;;;;;;;1.20;0.50;;;11.30;99.90;;;;;;4858718;29;20218;-74
2023/04/01 14:12:05;;;;;;;0.50;0.40;;;11.40;99.90;;;;;;4905363;29;20312;-75
2023/04/01 14:14:44;;;;;;;0.87;0.60;;;11.40;99.90;;;;;;4927892;29;20744;-75
2023/04/01 14:17:32;;;;;;;1.30;0.60;;;11.50;99.90;;;;;;4935572;29;20247;-75
2023/04/01 14:20:20;;;;;;;0.80;0.57;;;11.60;99.90;;;;;;4935759;29;20208;-76
2023/04/01 14:23:10;;;;;;;2.47;1.00;;;11.80;99.90;;;;;;4935678;29;20281;-75
2023/04/01 14:26:07;;;;;;;2.07;1.30;;;11.90;99.90;;;;;;4916430;29;20221;-75
2023/04/01 14:28:41;;;;;;;1.03;0.70;;;12.00;99.90;;;;;;4904776;29;20213;-78
2023/04/01 14:31:32;;;;;;;1.10;0.70;;;12.20;99.90;;;;;;4916132;29;20225;-77
2023/04/01 14:34:16;;;;;;;0.80;0.57;;;12.10;99.90;;;;;;4923561;29;20694;-76
2023/04/01 14:36:58;;;;;;;1.60;0.57;;;12.10;99.90;;;;;;4935413;29;20243;-75
